sensor_id;sensor_type;location;lat;lon;timestamp;pressure;altitude;pressure_sealevel;temperature;humidity
53011;BME280;42803;55.762;38.084;2023-07-02T00:00:54;97827.22;;;16.49;100.00
53011;BME280;42803;55.762;38.084;2023-07-02T00:03:23;97826.34;;;16.49;100.00
53011;BME280;42803;55.762;38.084;2023-07-02T00:05:52;97822.56;;;16.39;100.00
53011;BME280;42803;55.762;38.084;2023-07-02T00:08:22;97825.16;;;16.38;100.00
53011;BME280;42803;55.762;38.084;2023-07-02T00:10:51;97834.09;;;16.44;100.00
53011;BME280;42803;55.762;38.084;2023-07-02T00:13:20;97824.81;;;16.58;100.00
53011;BME280;42803;55.762;38.084;2023-07-02T00:15:50;97834.44;;;16.56;100.00
53011;BME280;42803;55.762;38.084;2023-07-02T00:18:19;97831.75;;;16.55;100.00
53011;BME280;42803;55.762;38.084;2023-07-02T00:20:49;97833.97;;;16.40;100.00
53011;BME280;42803;55.762;38.084;2023-07-02T00:23:18;97831.25;;;16.37;100.00
53011;BME280;42803;55.762;38.084;2023-07-02T00:25:47;97829.25;;;16.26;100.00
53011;BME280;42803;55.762;38.084;2023-07-02T00:28:16;97827.38;;;16.22;100.00
53011;BME280;42803;55.762;38.084;2023-07-02T00:30:45;97832.56;;;16.21;100.00
53011;BME280;42803;55.762;38.084;2023-07-02T00:33:16;97828.91;;;16.14;100.00
53011;BME280;42803;55.762;38.084;2023-07-02T00:35:45;97832.25;;;16.10;100.00
53011;BME280;42803;55.762;38.084;2023-07-02T00:38:14;97831.34;;;16.08;100.00
53011;BME280;42803;55.762;38.084;2023-07-02T00:40:43;97832.25;;;16.10;100.00
53011;BME280;42803;55.762;38.084;2023-07-02T00:43:15;97837.53;;;16.10;100.00
53011;BME280;42803;55.762;38.084;2023-07-02T00:45:44;97845.28;;;16.04;100.00
53011;BME280;42803;55.762;38.084;2023-07-02T00:48:13;97839.91;;;16.01;100.00
53011;BME280;42803;55.762;38.084;2023-07-02T00:50:44;97835.31;;;15.94;100.00
53011;BME280;42803;55.762;38.084;2023-07-02T00:53:15;97836.94;;;15.89;100.00
53011;BME280;42803;55.762;38.084;2023-07-02T00:55:43;97835.06;;;15.84;100.00
53011;BME280;42803;55.762;38.084;2023-07-02T00:58:13;97836.72;;;15.82;100.00
53011;BME280;42803;55.762;38.084;2023-07-02T01:00:43;97835.97;;;15.87;100.00
53011;BME280;42803;55.762;38.084;2023-07-02T01:03:13;97849.09;;;15.85;100.00
53011;BME280;42803;55.762;38.084;2023-07-02T01:05:43;97844.50;;;15.78;100.00
53011;BME280;42803;55.762;38.084;2023-07-02T01:08:13;97841.75;;;15.73;100.00
53011;BME280;42803;55.762;38.084;2023-07-02T01:10:44;97842.63;;;15.74;100.00
53011;BME280;42803;55.762;38.084;2023-07-02T01:13:17;97840.97;;;15.77;100.00
53011;BME280;42803;55.762;38.084;2023-07-02T01:15:48;97850.84;;;15.84;100.00
53011;BME280;42803;55.762;38.084;2023-07-02T01:18:18;97853.63;;;16.21;100.00
53011;BME280;42803;55.762;38.084;2023-07-02T01:20:49;97846.28;;;16.72;100.00
53011;BME280;42803;55.762;38.084;2023-07-02T01:23:20;97837.78;;;17.17;100.00
53011;BME280;42803;55.762;38.084;2023-07-02T01:25:51;97838.81;;;17.62;100.00
53011;BME280;42803;55.762;38.084;2023-07-02T01:28:20;97836.78;;;17.88;100.00
53011;BME280;42803;55.762;38.084;2023-07-02T01:30:51;97844.63;;;18.25;100.00
53011;BME280;42803;55.762;38.084;2023-07-02T01:33:20;97842.69;;;18.62;100.00
53011;BME280;42803;55.762;38.084;2023-07-02T01:35:51;97853.03;;;18.97;100.00
53011;BME280;42803;55.762;38.084;2023-07-02T01:38:20;97853.34;;;18.67;100.00
53011;BME280;42803;55.762;38.084;2023-07-02T01:40:49;97854.06;;;18.14;100.00
53011;BME280;42803;55.762;38.084;2023-07-02T01:43:20;97854.97;;;18.60;100.00
53011;BME280;42803;55.762;38.084;2023-07-02T01:45:49;97850.31;;;19.47;100.00
53011;BME280;42803;55.762;38.084;2023-07-02T01:48:19;97846.16;;;20.28;96.63
53011;BME280;42803;55.762;38.084;2023-07-02T01:50:49;97841.53;;;20.85;92.58
53011;BME280;42803;55.762;38.084;2023-07-02T01:53:20;97843.69;;;21.32;88.41
53011;BME280;42803;55.762;38.084;2023-07-02T01:55:49;97843.16;;;21.73;86.20
53011;BME280;42803;55.762;38.084;2023-07-02T01:58:19;97843.44;;;22.23;83.81
53011;BME280;42803;55.762;38.084;2023-07-02T02:00:48;97840.91;;;22.55;80.81
53011;BME280;42803;55.762;38.084;2023-07-02T02:03:17;97839.97;;;22.50;81.08
53011;BME280;42803;55.762;38.084;2023-07-02T02:05:46;97843.78;;;21.38;83.29
53011;BME280;42803;55.762;38.084;2023-07-02T02:08:16;97849.47;;;21.95;85.05
53011;BME280;42803;55.762;38.084;2023-07-02T02:10:46;97845.19;;;22.24;82.05
53011;BME280;42803;55.762;38.084;2023-07-02T02:13:16;97842.78;;;22.99;79.23
53011;BME280;42803;55.762;38.084;2023-07-02T02:15:45;97849.91;;;23.34;77.57
53011;BME280;42803;55.762;38.084;2023-07-02T02:18:14;97858.78;;;23.67;76.20
53011;BME280;42803;55.762;38.084;2023-07-02T02:21:03;97850.72;;;24.02;74.09
53011;BME280;42803;55.762;38.084;2023-07-02T02:23:32;97863.00;;;24.38;72.76
53011;BME280;42803;55.762;38.084;2023-07-02T02:26:03;97868.22;;;24.75;70.98
53011;BME280;42803;55.762;38.084;2023-07-02T02:28:32;97862.59;;;25.24;69.62
53011;BME280;42803;55.762;38.084;2023-07-02T02:31:01;97861.44;;;25.56;68.10
53011;BME280;42803;55.762;38.084;2023-07-02T02:33:32;97858.06;;;25.35;68.87
53011;BME280;42803;55.762;38.084;2023-07-02T02:36:02;97858.72;;;25.62;67.04
53011;BME280;42803;55.762;38.084;2023-07-02T02:38:32;97850.56;;;25.80;66.68
53011;BME280;42803;55.762;38.084;2023-07-02T02:41:04;97860.75;;;26.26;65.64
53011;BME280;42803;55.762;38.084;2023-07-02T02:43:41;97862.34;;;26.45;64.60
53011;BME280;42803;55.762;38.084;2023-07-02T02:46:19;97856.84;;;26.56;63.76
53011;BME280;42803;55.762;38.084;2023-07-02T02:48:49;97861.41;;;26.45;64.01
53011;BME280;42803;55.762;38.084;2023-07-02T02:51:19;97857.16;;;26.96;62.73
53011;BME280;42803;55.762;38.084;2023-07-02T02:53:49;97859.50;;;27.21;61.71
53011;BME280;42803;55.762;38.084;2023-07-02T02:56:19;97861.13;;;27.31;60.54
53011;BME280;42803;55.762;38.084;2023-07-02T02:58:48;97856.06;;;27.65;59.87
53011;BME280;42803;55.762;38.084;2023-07-02T03:01:18;97868.81;;;27.53;60.45
53011;BME280;42803;55.762;38.084;2023-07-02T03:03:47;97868.06;;;27.43;60.07
53011;BME280;42803;55.762;38.084;2023-07-02T03:06:16;97869.84;;;27.97;59.60
53011;BME280;42803;55.762;38.084;2023-07-02T03:08:45;97867.78;;;28.11;58.45
53011;BME280;42803;55.762;38.084;2023-07-02T03:11:14;97872.41;;;28.03;58.16
53011;BME280;42803;55.762;38.084;2023-07-02T03:13:44;97865.81;;;27.74;58.16
53011;BME280;42803;55.762;38.084;2023-07-02T03:16:14;97872.06;;;27.16;59.49
53011;BME280;42803;55.762;38.084;2023-07-02T03:18:43;97873.84;;;25.63;63.52
53011;BME280;42803;55.762;38.084;2023-07-02T03:21:12;97874.69;;;24.06;68.40
53011;BME280;42803;55.762;38.084;2023-07-02T03:23:41;97877.38;;;22.98;72.67
53011;BME280;42803;55.762;38.084;2023-07-02T03:26:11;97870.16;;;22.57;75.43
53011;BME280;42803;55.762;38.084;2023-07-02T03:28:40;97868.41;;;22.70;76.38
53011;BME280;42803;55.762;38.084;2023-07-02T03:31:10;97872.00;;;22.84;75.74
53011;BME280;42803;55.762;38.084;2023-07-02T03:33:39;97874.50;;;22.38;76.94
53011;BME280;42803;55.762;38.084;2023-07-02T03:36:08;97883.47;;;22.55;77.61
53011;BME280;42803;55.762;38.084;2023-07-02T03:38:37;97889.78;;;22.93;75.92
53011;BME280;42803;55.762;38.084;2023-07-02T03:41:06;97883.34;;;22.31;77.31
53011;BME280;42803;55.762;38.084;2023-07-02T03:43:35;97891.16;;;22.02;78.54
53011;BME280;42803;55.762;38.084;2023-07-02T03:46:04;97889.28;;;21.90;79.25
53011;BME280;42803;55.762;38.084;2023-07-02T03:48:35;97893.84;;;22.09;79.36
53011;BME280;42803;55.762;38.084;2023-07-02T03:51:04;97897.03;;;21.56;81.08
53011;BME280;42803;55.762;38.084;2023-07-02T03:53:33;97905.56;;;21.25;83.09
53011;BME280;42803;55.762;38.084;2023-07-02T03:56:02;97900.00;;;20.97;84.39
53011;BME280;42803;55.762;38.084;2023-07-02T03:58:31;97910.34;;;20.73;85.78
53011;BME280;42803;55.762;38.084;2023-07-02T04:01:01;97909.41;;;20.02;89.12
53011;BME280;42803;55.762;38.084;2023-07-02T04:03:30;97905.16;;;20.13;89.66
53011;BME280;42803;55.762;38.084;2023-07-02T04:06:01;97904.34;;;20.90;88.54
53011;BME280;42803;55.762;38.084;2023-07-02T04:08:30;97918.47;;;20.88;86.25
53011;BME280;42803;55.762;38.084;2023-07-02T04:10:59;97918.97;;;20.56;88.50
53011;BME280;42803;55.762;38.084;2023-07-02T04:13:28;97923.75;;;20.18;89.77
53011;BME280;42803;55.762;38.084;2023-07-02T04:15:57;97927.72;;;19.85;91.43
53011;BME280;42803;55.762;38.084;2023-07-02T04:18:26;97924.50;;;19.53;92.93
53011;BME280;42803;55.762;38.084;2023-07-02T04:20:56;97923.97;;;19.19;94.58
53011;BME280;42803;55.762;38.084;2023-07-02T04:23:27;97933.69;;;19.22;95.91
53011;BME280;42803;55.762;38.084;2023-07-02T04:25:57;97938.72;;;19.58;94.01
53011;BME280;42803;55.762;38.084;2023-07-02T04:28:46;97936.66;;;19.42;94.29
53011;BME280;42803;55.762;38.084;2023-07-02T04:31:15;97946.03;;;19.21;94.92
53011;BME280;42803;55.762;38.084;2023-07-02T04:33:44;97954.50;;;19.02;95.90
53011;BME280;42803;55.762;38.084;2023-07-02T04:36:13;97948.88;;;19.34;96.73
53011;BME280;42803;55.762;38.084;2023-07-02T04:38:44;97946.94;;;19.74;94.32
53011;BME280;42803;55.762;38.084;2023-07-02T04:41:13;97944.22;;;20.28;91.70
53011;BME280;42803;55.762;38.084;2023-07-02T04:43:42;97943.03;;;20.72;89.20
53011;BME280;42803;55.762;38.084;2023-07-02T04:46:12;97948.63;;;20.98;86.31
53011;BME280;42803;55.762;38.084;2023-07-02T04:48:42;97944.66;;;20.60;87.68
53011;BME280;42803;55.762;38.084;2023-07-02T04:51:11;97949.56;;;21.01;87.52
53011;BME280;42803;55.762;38.084;2023-07-02T04:53:40;97928.09;;;21.70;84.29
53011;BME280;42803;55.762;38.084;2023-07-02T04:56:10;97939.97;;;22.14;80.66
53011;BME280;42803;55.762;38.084;2023-07-02T04:58:39;97943.41;;;22.04;80.01
53011;BME280;42803;55.762;38.084;2023-07-02T05:01:08;97941.25;;;21.54;81.42
53011;BME280;42803;55.762;38.084;2023-07-02T05:03:37;97941.00;;;21.30;82.87
53011;BME280;42803;55.762;38.084;2023-07-02T05:06:07;97948.47;;;21.68;82.59
53011;BME280;42803;55.762;38.084;2023-07-02T05:08:36;97948.66;;;21.95;80.83
53011;BME280;42803;55.762;38.084;2023-07-02T11:12:14;97996.09;;;25.32;51.09
53011;BME280;42803;55.762;38.084;2023-07-02T11:14:44;98006.06;;;24.82;51.88
53011;BME280;42803;55.762;38.084;2023-07-02T11:17:13;98007.84;;;24.80;51.38
53011;BME280;42803;55.762;38.084;2023-07-02T11:19:56;98014.00;;;25.13;51.93
53011;BME280;42803;55.762;38.084;2023-07-02T11:22:31;98014.88;;;25.15;51.75
53011;BME280;42803;55.762;38.084;2023-07-02T11:25:11;98015.78;;;25.12;51.49
53011;BME280;42803;55.762;38.084;2023-07-02T11:27:42;98012.25;;;24.98;51.19
53011;BME280;42803;55.762;38.084;2023-07-02T11:30:12;98016.69;;;25.00;51.25
53011;BME280;42803;55.762;38.084;2023-07-02T11:32:48;98025.63;;;24.89;51.93
53011;BME280;42803;55.762;38.084;2023-07-02T11:35:19;98024.63;;;25.22;51.07
53011;BME280;42803;55.762;38.084;2023-07-02T11:37:49;98022.00;;;25.10;51.68
53011;BME280;42803;55.762;38.084;2023-07-02T11:40:20;98023.75;;;25.23;51.63
53011;BME280;42803;55.762;38.084;2023-07-02T11:42:50;98027.25;;;25.28;52.25
53011;BME280;42803;55.762;38.084;2023-07-02T11:45:20;98019.03;;;25.60;50.76
53011;BME280;42803;55.762;38.084;2023-07-02T11:47:49;98026.31;;;25.41;50.21
53011;BME280;42803;55.762;38.084;2023-07-02T11:50:18;98034.34;;;25.38;49.58
53011;BME280;42803;55.762;38.084;2023-07-02T11:52:53;98023.88;;;24.82;49.16
53011;BME280;42803;55.762;38.084;2023-07-02T11:55:23;98025.63;;;24.86;49.14
53011;BME280;42803;55.762;38.084;2023-07-02T11:57:54;98025.66;;;24.84;49.49
53011;BME280;42803;55.762;38.084;2023-07-02T12:00:23;98026.44;;;25.14;49.90
53011;BME280;42803;55.762;38.084;2023-07-02T12:02:53;98023.72;;;25.27;50.00
53011;BME280;42803;55.762;38.084;2023-07-02T12:05:22;98027.31;;;25.20;49.75
53011;BME280;42803;55.762;38.084;2023-07-02T12:07:51;98029.13;;;24.98;50.13
53011;BME280;42803;55.762;38.084;2023-07-02T12:10:20;98023.88;;;24.72;50.39
53011;BME280;42803;55.762;38.084;2023-07-02T12:12:50;98021.22;;;24.74;51.27
53011;BME280;42803;55.762;38.084;2023-07-02T12:15:20;98016.75;;;24.85;50.97
53011;BME280;42803;55.762;38.084;2023-07-02T12:17:49;98007.75;;;25.08;50.19
53011;BME280;42803;55.762;38.084;2023-07-02T12:20:18;98030.03;;;25.03;50.85
53011;BME280;42803;55.762;38.084;2023-07-02T12:22:48;98021.91;;;25.28;51.17
53011;BME280;42803;55.762;38.084;2023-07-02T12:25:17;98017.50;;;25.22;51.24
53011;BME280;42803;55.762;38.084;2023-07-02T12:27:46;98016.56;;;25.29;49.89
53011;BME280;42803;55.762;38.084;2023-07-02T12:30:17;98022.69;;;25.50;49.68
53011;BME280;42803;55.762;38.084;2023-07-02T12:32:48;98018.09;;;25.72;50.37
53011;BME280;42803;55.762;38.084;2023-07-02T12:35:17;98015.34;;;25.87;49.55
53011;BME280;42803;55.762;38.084;2023-07-02T12:37:47;98021.28;;;26.23;50.08
53011;BME280;42803;55.762;38.084;2023-07-02T12:40:17;98024.88;;;26.19;48.24
53011;BME280;42803;55.762;38.084;2023-07-02T12:42:47;98011.72;;;25.96;48.96
53011;BME280;42803;55.762;38.084;2023-07-02T12:45:17;98018.22;;;25.53;48.08
53011;BME280;42803;55.762;38.084;2023-07-02T12:47:50;98019.88;;;25.73;48.92
53011;BME280;42803;55.762;38.084;2023-07-02T12:50:19;98012.75;;;25.72;47.87
53011;BME280;42803;55.762;38.084;2023-07-02T12:52:49;98014.91;;;26.38;46.88
53011;BME280;42803;55.762;38.084;2023-07-02T12:55:18;98011.22;;;26.51;46.57
53011;BME280;42803;55.762;38.084;2023-07-02T12:57:47;98020.06;;;26.58;46.64
53011;BME280;42803;55.762;38.084;2023-07-02T13:00:16;98012.09;;;26.52;46.44
53011;BME280;42803;55.762;38.084;2023-07-02T13:02:46;98019.38;;;26.34;45.93
53011;BME280;42803;55.762;38.084;2023-07-02T13:05:32;98025.16;;;25.82;46.04
53011;BME280;42803;55.762;38.084;2023-07-02T13:08:01;98026.13;;;25.70;46.56
53011;BME280;42803;55.762;38.084;2023-07-02T13:10:31;98021.56;;;25.86;46.91
53011;BME280;42803;55.762;38.084;2023-07-02T13:13:03;98020.13;;;26.52;46.70
53011;BME280;42803;55.762;38.084;2023-07-02T13:15:49;98024.63;;;26.49;46.00
53011;BME280;42803;55.762;38.084;2023-07-02T13:18:19;98012.31;;;26.27;45.26
53011;BME280;42803;55.762;38.084;2023-07-02T13:20:49;98016.59;;;26.43;45.61
53011;BME280;42803;55.762;38.084;2023-07-02T13:23:18;98019.38;;;26.37;45.03
53011;BME280;42803;55.762;38.084;2023-07-02T13:25:47;98022.50;;;25.82;45.69
53011;BME280;42803;55.762;38.084;2023-07-02T13:28:17;98031.75;;;25.23;45.36
53011;BME280;42803;55.762;38.084;2023-07-02T13:30:49;98030.06;;;24.84;46.53
53011;BME280;42803;55.762;38.084;2023-07-02T13:33:25;98039.06;;;24.35;46.91
53011;BME280;42803;55.762;38.084;2023-07-02T13:35:58;98032.84;;;23.84;47.32
53011;BME280;42803;55.762;38.084;2023-07-02T13:38:27;98031.09;;;23.86;47.89
53011;BME280;42803;55.762;38.084;2023-07-02T13:40:56;98029.28;;;24.34;47.75
53011;BME280;42803;55.762;38.084;2023-07-02T13:43:25;98025.72;;;24.49;47.69
53011;BME280;42803;55.762;38.084;2023-07-02T13:45:55;98031.09;;;24.50;47.01
53011;BME280;42803;55.762;38.084;2023-07-02T13:48:24;98028.41;;;24.14;47.97
53011;BME280;42803;55.762;38.084;2023-07-02T13:50:55;98035.53;;;23.95;48.22
53011;BME280;42803;55.762;38.084;2023-07-02T13:53:26;98034.63;;;23.88;48.09
53011;BME280;42803;55.762;38.084;2023-07-02T13:55:55;98034.66;;;23.97;48.53
53011;BME280;42803;55.762;38.084;2023-07-02T13:58:25;98039.97;;;24.08;47.98
53011;BME280;42803;55.762;38.084;2023-07-02T14:00:58;98031.97;;;24.14;47.42
53011;BME280;42803;55.762;38.084;2023-07-02T14:03:29;98039.06;;;24.32;47.59
53011;BME280;42803;55.762;38.084;2023-07-02T14:05:58;98040.88;;;24.01;47.25
53011;BME280;42803;55.762;38.084;2023-07-02T14:08:29;98036.44;;;24.04;47.89
53011;BME280;42803;55.762;38.084;2023-07-02T14:10:58;98038.19;;;24.21;48.07
53011;BME280;42803;55.762;38.084;2023-07-02T14:13:27;98038.22;;;24.39;47.06
53011;BME280;42803;55.762;38.084;2023-07-02T14:15:59;98046.19;;;24.41;47.40
53011;BME280;42803;55.762;38.084;2023-07-02T14:18:28;98040.84;;;24.56;47.04
53011;BME280;42803;55.762;38.084;2023-07-02T14:20:57;98039.06;;;24.56;46.94
53011;BME280;42803;55.762;38.084;2023-07-02T14:23:27;98043.50;;;24.64;47.12
53011;BME280;42803;55.762;38.084;2023-07-02T14:25:56;98033.69;;;24.70;46.54
53011;BME280;42803;55.762;38.084;2023-07-02T14:28:25;98041.75;;;24.47;46.73
53011;BME280;42803;55.762;38.084;2023-07-02T14:30:58;98038.19;;;24.21;46.62
53011;BME280;42803;55.762;38.084;2023-07-02T14:33:29;98051.53;;;24.02;47.02
53011;BME280;42803;55.762;38.084;2023-07-02T14:35:59;98047.09;;;24.04;47.00
53011;BME280;42803;55.762;38.084;2023-07-02T14:38:28;98047.06;;;24.11;47.53
53011;BME280;42803;55.762;38.084;2023-07-02T14:40:58;98045.31;;;24.43;47.06
53011;BME280;42803;55.762;38.084;2023-07-02T14:43:29;98031.91;;;24.71;47.27
53011;BME280;42803;55.762;38.084;2023-07-02T14:46:01;98038.97;;;24.90;47.12
53011;BME280;42803;55.762;38.084;2023-07-02T14:48:31;98042.59;;;24.34;46.49
53011;BME280;42803;55.762;38.084;2023-07-02T14:51:02;98040.88;;;24.08;46.65
53011;BME280;42803;55.762;38.084;2023-07-02T14:53:32;98045.31;;;23.94;46.95
53011;BME280;42803;55.762;38.084;2023-07-02T14:56:02;98047.94;;;24.11;46.49
53011;BME280;42803;55.762;38.084;2023-07-02T14:58:31;98042.59;;;24.37;46.86
53011;BME280;42803;55.762;38.084;2023-07-02T15:01:02;98038.22;;;24.39;45.88
53011;BME280;42803;55.762;38.084;2023-07-02T15:03:31;98043.47;;;24.67;46.28
53011;BME280;42803;55.762;38.084;2023-07-02T15:06:09;98042.53;;;24.89;46.31
53011;BME280;42803;55.762;38.084;2023-07-02T15:08:40;98042.47;;;25.11;45.29
53011;BME280;42803;55.762;38.084;2023-07-02T15:11:10;98038.00;;;25.19;44.08
53011;BME280;42803;55.762;38.084;2023-07-02T15:13:40;98041.63;;;24.99;44.04
53011;BME280;42803;55.762;38.084;2023-07-02T15:16:11;98048.78;;;24.79;44.20
53011;BME280;42803;55.762;38.084;2023-07-02T15:18:41;98059.50;;;24.73;45.12
53011;BME280;42803;55.762;38.084;2023-07-02T15:21:10;98051.53;;;24.21;45.18
53011;BME280;42803;55.762;38.084;2023-07-02T15:23:39;98057.75;;;24.21;45.38
53011;BME280;42803;55.762;38.084;2023-07-02T15:26:08;98060.38;;;24.30;45.52
53011;BME280;42803;55.762;38.084;2023-07-02T15:28:37;98057.72;;;24.63;45.02
53011;BME280;42803;55.762;38.084;2023-07-02T15:31:09;98052.03;;;25.56;43.96
53011;BME280;42803;55.762;38.084;2023-07-02T15:33:45;98059.34;;;25.07;43.97
53011;BME280;42803;55.762;38.084;2023-07-02T15:36:16;98060.38;;;24.76;44.92
53011;BME280;42803;55.762;38.084;2023-07-02T15:38:45;98061.25;;;24.74;44.55
53011;BME280;42803;55.762;38.084;2023-07-02T15:41:17;98055.88;;;24.92;44.73
53011;BME280;42803;55.762;38.084;2023-07-02T15:43:47;98054.97;;;24.99;44.29
53011;BME280;42803;55.762;38.084;2023-07-02T15:46:16;98063.00;;;24.83;45.10
53011;BME280;42803;55.762;38.084;2023-07-02T15:48:47;98060.97;;;25.53;43.83
53011;BME280;42803;55.762;38.084;2023-07-02T15:51:18;98055.41;;;25.90;43.41
53011;BME280;42803;55.762;38.084;2023-07-02T15:53:48;98049.00;;;26.10;43.40
53011;BME280;42803;55.762;38.084;2023-07-02T15:56:18;98058.34;;;25.46;44.72
53011;BME280;42803;55.762;38.084;2023-07-02T15:58:47;98049.25;;;25.76;44.52
53011;BME280;42803;55.762;38.084;2023-07-02T16:01:19;98054.47;;;25.97;43.92
53011;BME280;42803;55.762;38.084;2023-07-02T16:03:49;98055.59;;;25.61;43.57
53011;BME280;42803;55.762;38.084;2023-07-02T16:06:20;98048.72;;;24.94;44.83
53011;BME280;42803;55.762;38.084;2023-07-02T16:08:54;98060.41;;;24.56;45.84
53011;BME280;42803;55.762;38.084;2023-07-02T16:11:23;98059.53;;;24.24;45.62
53011;BME280;42803;55.762;38.084;2023-07-02T16:13:54;98066.66;;;24.16;46.46
53011;BME280;42803;55.762;38.084;2023-07-02T16:16:25;98063.06;;;24.53;46.23
53011;BME280;42803;55.762;38.084;2023-07-02T16:18:55;98052.78;;;25.86;44.03
53011;BME280;42803;55.762;38.084;2023-07-02T16:21:25;98053.16;;;26.51;42.13
53011;BME280;42803;55.762;38.084;2023-07-02T16:23:54;98056.47;;;26.74;42.06
53011;BME280;42803;55.762;38.084;2023-07-02T16:26:23;98047.50;;;26.78;41.48
53011;BME280;42803;55.762;38.084;2023-07-02T16:28:52;98058.25;;;25.64;43.32
53011;BME280;42803;55.762;38.084;2023-07-02T16:31:22;98069.25;;;24.82;44.96
53011;BME280;42803;55.762;38.084;2023-07-02T16:33:52;98063.03;;;24.38;46.10
53011;BME280;42803;55.762;38.084;2023-07-02T16:36:23;98062.19;;;24.07;46.97
53011;BME280;42803;55.762;38.084;2023-07-02T16:38:52;98064.81;;;23.72;47.70
53011;BME280;42803;55.762;38.084;2023-07-02T16:41:23;98061.22;;;23.54;47.92
53011;BME280;42803;55.762;38.084;2023-07-02T16:43:52;98065.63;;;23.52;48.27
53011;BME280;42803;55.762;38.084;2023-07-02T16:46:21;98067.38;;;23.44;48.04
53011;BME280;42803;55.762;38.084;2023-07-02T16:48:50;98070.03;;;23.50;48.50
53011;BME280;42803;55.762;38.084;2023-07-02T16:51:20;98072.75;;;23.66;48.50
53011;BME280;42803;55.762;38.084;2023-07-02T16:53:50;98074.59;;;23.79;48.65
53011;BME280;42803;55.762;38.084;2023-07-02T16:56:22;98066.59;;;23.79;48.46
53011;BME280;42803;55.762;38.084;2023-07-02T16:58:51;98071.06;;;23.78;48.76
53011;BME280;42803;55.762;38.084;2023-07-02T17:01:20;98067.47;;;23.81;48.66
53011;BME280;42803;55.762;38.084;2023-07-02T17:03:49;98067.47;;;23.72;49.06
53011;BME280;42803;55.762;38.084;2023-07-02T17:06:19;98079.03;;;23.77;49.39
53011;BME280;42803;55.762;38.084;2023-07-02T17:09:18;98080.84;;;24.08;49.47
53011;BME280;42803;55.762;38.084;2023-07-02T17:11:48;98072.72;;;25.08;47.97
53011;BME280;42803;55.762;38.084;2023-07-02T17:14:20;98067.72;;;26.13;46.24
53011;BME280;42803;55.762;38.084;2023-07-02T17:16:51;98071.47;;;26.89;44.80
53011;BME280;42803;55.762;38.084;2023-07-02T17:19:24;98080.84;;;27.28;44.17
53011;BME280;42803;55.762;38.084;2023-07-02T17:21:55;98078.94;;;27.39;43.92
53011;BME280;42803;55.762;38.084;2023-07-02T17:24:27;98087.16;;;27.26;43.88
53011;BME280;42803;55.762;38.084;2023-07-02T17:26:58;98090.94;;;27.06;44.27
53011;BME280;42803;55.762;38.084;2023-07-02T17:29:27;98093.09;;;26.72;44.70
53011;BME280;42803;55.762;38.084;2023-07-02T17:32:00;98096.09;;;26.34;44.76
53011;BME280;42803;55.762;38.084;2023-07-02T17:34:31;98093.66;;;26.01;45.44
53011;BME280;42803;55.762;38.084;2023-07-02T17:37:03;98095.69;;;25.55;46.61
53011;BME280;42803;55.762;38.084;2023-07-02T17:39:34;98102.06;;;25.25;47.31
53011;BME280;42803;55.762;38.084;2023-07-02T17:42:05;98116.34;;;25.09;47.66
53011;BME280;42803;55.762;38.084;2023-07-02T17:44:36;98114.63;;;24.77;48.41
53011;BME280;42803;55.762;38.084;2023-07-02T17:47:07;98120.84;;;24.30;49.49
53011;BME280;42803;55.762;38.084;2023-07-02T17:49:39;98116.38;;;23.89;50.63
53011;BME280;42803;55.762;38.084;2023-07-02T17:52:11;98115.31;;;23.44;51.14
53011;BME280;42803;55.762;38.084;2023-07-02T17:54:43;98130.19;;;22.99;52.27
53011;BME280;42803;55.762;38.084;2023-07-02T17:57:15;98121.88;;;22.55;53.59
53011;BME280;42803;55.762;38.084;2023-07-02T17:59:45;98123.34;;;22.16;54.22
53011;BME280;42803;55.762;38.084;2023-07-02T18:02:16;98122.09;;;21.82;54.66
53011;BME280;42803;55.762;38.084;2023-07-02T18:04:45;98124.38;;;21.45;55.80
53011;BME280;42803;55.762;38.084;2023-07-02T18:07:17;98133.56;;;21.06;56.82
53011;BME280;42803;55.762;38.084;2023-07-02T18:09:50;98147.91;;;20.58;58.66
53011;BME280;42803;55.762;38.084;2023-07-02T18:12:22;98147.22;;;20.20;59.59
53011;BME280;42803;55.762;38.084;2023-07-02T18:14:52;98152.13;;;19.97;60.18
53011;BME280;42803;55.762;38.084;2023-07-02T18:17:22;98153.41;;;19.72;61.65
53011;BME280;42803;55.762;38.084;2023-07-02T18:19:52;98153.78;;;19.48;62.83
53011;BME280;42803;55.762;38.084;2023-07-02T18:22:24;98150.59;;;19.22;63.85
53011;BME280;42803;55.762;38.084;2023-07-02T18:24:54;98147.53;;;19.02;64.99
53011;BME280;42803;55.762;38.084;2023-07-02T18:27:24;98154.97;;;18.81;66.68
53011;BME280;42803;55.762;38.084;2023-07-02T18:29:53;98150.09;;;18.61;67.45
53011;BME280;42803;55.762;38.084;2023-07-02T18:32:22;98149.66;;;18.43;67.58
53011;BME280;42803;55.762;38.084;2023-07-02T18:34:56;98151.97;;;18.29;69.62
53011;BME280;42803;55.762;38.084;2023-07-02T18:37:25;98150.69;;;18.13;71.05
53011;BME280;42803;55.762;38.084;2023-07-02T18:39:56;98154.75;;;18.00;71.79
53011;BME280;42803;55.762;38.084;2023-07-02T18:42:25;98145.72;;;17.91;73.67
53011;BME280;42803;55.762;38.084;2023-07-02T18:44:54;98149.72;;;17.76;74.18
53011;BME280;42803;55.762;38.084;2023-07-02T18:47:23;98147.50;;;17.60;74.34
53011;BME280;42803;55.762;38.084;2023-07-02T18:49:52;98150.81;;;17.53;74.67
53011;BME280;42803;55.762;38.084;2023-07-02T18:52:21;98154.75;;;17.37;76.24
53011;BME280;42803;55.762;38.084;2023-07-02T18:54:51;98155.19;;;17.21;78.25
53011;BME280;42803;55.762;38.084;2023-07-02T18:57:21;98155.63;;;17.06;78.76
53011;BME280;42803;55.762;38.084;2023-07-02T18:59:50;98162.53;;;17.02;79.48
53011;BME280;42803;55.762;38.084;2023-07-02T19:02:20;98167.63;;;16.96;79.67
53011;BME280;42803;55.762;38.084;2023-07-02T19:04:50;98161.19;;;16.87;79.95